Terminal Aerodrome Forecast
Issued by NWS

Home | Current Version | Previous Version | Text Only | Print | Product List | Glossary On
Versions: 1 2 3 4 5 6 7 8 9 10 11 12 13 14 15 16 17 18 19 20 21 22 23 24 25 26 27 28
530
FTUS43 KLOT 020021 AAA
TAFDPA
TAF AMD
KDPA 020021Z 0200/0224 03014KT 6SM -SHRA BR OVC010
     FM020100 03012KT 5SM -SHRA OVC009
      TEMPO 0201/0202 3SM TSRA OVC006CB
     FM020330 03011KT 5SM BR OVC004
     FM020800 02009KT P6SM OVC008
     FM021200 03011KT P6SM OVC012
     FM021500 04011KT P6SM OVC025
     FM021800 04012KT P6SM BKN035 OVC050=

USA.gov is the U.S. government's official web portal to all federal, state and local government web resources and services.